createdAt,value
2019-05-26T00:01:20.595Z,9.00
2019-05-26T00:03:48.182Z,9.20
2019-05-26T00:06:15.719Z,8.50
2019-05-26T00:08:43.279Z,9.53
2019-05-26T00:11:10.822Z,10.00
2019-05-26T00:13:38.379Z,10.40
2019-05-26T00:16:05.929Z,10.80
2019-05-26T00:18:33.654Z,9.47
2019-05-26T00:21:01.103Z,9.77
2019-05-26T00:23:28.669Z,9.60
2019-05-26T00:25:56.208Z,8.60
2019-05-26T00:28:23.779Z,8.47
2019-05-26T00:30:51.323Z,9.10
2019-05-26T00:33:18.893Z,8.97
2019-05-26T00:35:46.436Z,8.53
2019-05-26T00:38:13.977Z,9.00
2019-05-26T00:40:41.537Z,9.60
2019-05-26T00:43:09.066Z,8.80
2019-05-26T00:45:36.629Z,9.27
2019-05-26T00:48:04.191Z,9.07
2019-05-26T00:50:31.731Z,9.70
2019-05-26T00:53:00.093Z,9.43
2019-05-26T00:55:27.779Z,8.80
2019-05-26T00:57:55.343Z,8.60
2019-05-26T01:00:38.523Z,9.03
2019-05-26T01:03:06.087Z,8.90
2019-05-26T01:05:33.658Z,8.03
2019-05-26T01:08:06.461Z,8.80
2019-05-26T01:10:30.327Z,8.23
2019-05-26T01:12:57.894Z,9.10
2019-05-26T01:15:25.463Z,8.50
2019-05-26T01:17:53.027Z,8.87
2019-05-26T01:20:20.565Z,9.43
2019-05-26T01:22:48.147Z,8.10
2019-05-26T01:25:15.712Z,8.23
2019-05-26T01:27:43.251Z,9.07
2019-05-26T01:30:11.738Z,7.87
2019-05-26T01:32:39.300Z,8.20
2019-05-26T01:35:06.859Z,8.10
2019-05-26T01:37:34.403Z,7.83
2019-05-26T01:40:01.972Z,9.10
2019-05-26T01:42:31.453Z,8.10
2019-05-26T01:44:59.018Z,8.27
2019-05-26T01:47:26.552Z,8.13
2019-05-26T01:49:54.112Z,9.23
2019-05-26T01:52:21.683Z,8.50
2019-05-26T01:54:49.243Z,7.90
2019-05-26T01:57:16.779Z,8.70
2019-05-26T01:59:44.343Z,8.93
2019-05-26T02:02:11.909Z,7.90
2019-05-26T02:04:39.469Z,8.73
2019-05-26T02:07:07.056Z,8.73
2019-05-26T02:09:34.610Z,8.70
2019-05-26T02:12:02.179Z,8.43
2019-05-26T02:14:29.744Z,8.20
2019-05-26T02:16:57.276Z,7.93
2019-05-26T02:19:24.841Z,9.00
2019-05-26T02:21:52.408Z,8.30
2019-05-26T02:24:19.967Z,8.50
2019-05-26T02:26:48.272Z,8.67
2019-05-26T02:29:16.568Z,8.20
2019-05-26T02:31:44.128Z,8.33
2019-05-26T02:34:11.664Z,8.40
2019-05-26T02:36:39.245Z,8.17
2019-05-26T02:39:06.795Z,8.20
2019-05-26T02:41:35.400Z,7.90
2019-05-26T02:44:02.937Z,8.13
2019-05-26T02:46:30.531Z,7.87
2019-05-26T02:48:58.077Z,8.00
2019-05-26T02:51:25.647Z,8.20
2019-05-26T02:53:55.164Z,8.27
2019-05-26T02:56:22.727Z,7.37
2019-05-26T02:58:50.277Z,8.30
2019-05-26T03:01:17.840Z,8.87
2019-05-26T03:03:45.407Z,8.17
2019-05-26T03:06:12.976Z,8.40
2019-05-26T03:08:40.524Z,8.20
2019-05-26T03:11:08.855Z,8.60
2019-05-26T03:13:36.397Z,8.53
2019-05-26T03:16:03.966Z,8.10
2019-05-26T03:18:31.500Z,8.00
2019-05-26T03:20:59.073Z,8.07
2019-05-26T03:23:26.608Z,8.30
2019-05-26T03:25:54.180Z,8.60
2019-05-26T03:28:21.718Z,8.83
2019-05-26T03:30:50.285Z,8.87
2019-05-26T03:33:17.828Z,8.57
2019-05-26T03:35:45.405Z,9.23
2019-05-26T03:38:12.957Z,8.67
2019-05-26T03:40:40.523Z,9.00
2019-05-26T03:43:08.832Z,8.50
2019-05-26T03:45:54.904Z,9.00
2019-05-26T03:48:22.445Z,9.57
2019-05-26T03:50:50.008Z,9.47
2019-05-26T03:53:17.553Z,11.20
2019-05-26T03:55:45.125Z,9.70
2019-05-26T03:58:12.656Z,9.10
2019-05-26T04:00:40.221Z,8.97
2019-05-26T04:03:07.789Z,8.47
2019-05-26T04:05:35.353Z,7.40
2019-05-26T04:08:04.680Z,7.80
2019-05-26T04:10:30.509Z,8.13
2019-05-26T04:12:58.050Z,7.77
2019-05-26T04:15:26.656Z,7.87
2019-05-26T04:17:54.201Z,8.90
2019-05-26T04:20:21.842Z,8.90
2019-05-26T04:22:49.386Z,7.40
2019-05-26T04:25:17.168Z,8.47
2019-05-26T04:27:44.714Z,8.13
2019-05-26T04:30:12.262Z,8.07
2019-05-26T04:32:39.827Z,7.83
2019-05-26T04:35:07.375Z,7.90
2019-05-26T04:37:34.940Z,7.33
2019-05-26T04:40:02.516Z,7.73
2019-05-26T04:42:30.056Z,6.57
2019-05-26T04:44:57.627Z,6.00
2019-05-26T04:47:25.201Z,6.77
2019-05-26T04:49:52.765Z,7.47
2019-05-26T04:52:20.405Z,7.13
2019-05-26T04:54:47.964Z,8.20
2019-05-26T04:57:16.501Z,7.07
2019-05-26T04:59:44.823Z,7.60
2019-05-26T05:02:12.355Z,7.13
2019-05-26T05:04:39.924Z,7.80
2019-05-26T05:07:07.484Z,6.77
2019-05-26T05:09:35.042Z,8.10
2019-05-26T05:12:02.580Z,6.90
2019-05-26T05:14:30.144Z,6.87
2019-05-26T05:16:57.709Z,6.03
2019-05-26T05:19:25.266Z,6.13
2019-05-26T05:21:52.800Z,6.30
2019-05-26T05:24:20.356Z,7.00
2019-05-26T05:26:48.684Z,6.47
2019-05-26T05:29:16.246Z,5.97
2019-05-26T05:31:43.776Z,6.23
2019-05-26T05:34:11.337Z,5.57
2019-05-26T05:36:38.907Z,6.30
2019-05-26T05:39:07.464Z,5.30
2019-05-26T05:41:34.995Z,5.60
2019-05-26T05:44:03.315Z,5.50
2019-05-26T05:46:30.876Z,5.90
2019-05-26T05:48:58.438Z,4.97
2019-05-26T05:51:25.968Z,5.37
2019-05-26T05:53:53.519Z,4.60
2019-05-26T05:56:21.084Z,4.47
2019-05-26T05:58:48.616Z,4.70
2019-05-26T06:01:16.182Z,5.13
2019-05-26T06:03:43.717Z,3.80
2019-05-26T06:06:11.282Z,3.67
2019-05-26T06:08:38.859Z,3.50
2019-05-26T06:11:16.159Z,3.73
2019-05-26T06:13:35.008Z,3.60
2019-05-26T06:16:02.541Z,4.07
2019-05-26T06:18:30.243Z,4.03
2019-05-26T06:20:57.802Z,3.47
2019-05-26T06:23:25.359Z,3.33
2019-05-26T06:25:52.891Z,3.50
2019-05-26T06:28:21.413Z,3.77
2019-05-26T06:30:48.971Z,3.90
2019-05-26T06:33:16.594Z,4.40
2019-05-26T06:35:44.107Z,3.33
2019-05-26T06:38:11.667Z,3.53
2019-05-26T06:40:39.991Z,3.60
2019-05-26T06:43:07.548Z,4.00
2019-05-26T06:45:35.176Z,3.87
2019-05-26T06:48:02.735Z,4.10
2019-05-26T06:50:30.295Z,4.30
2019-05-26T06:52:57.854Z,4.20
2019-05-26T06:55:25.387Z,4.57
2019-05-26T06:57:53.708Z,5.10
2019-05-26T07:00:21.264Z,4.80
2019-05-26T07:02:48.819Z,4.80
2019-05-26T07:05:18.545Z,4.10
2019-05-26T07:07:43.974Z,4.30
2019-05-26T07:10:11.991Z,4.72
2019-05-26T07:12:39.519Z,4.73
2019-05-26T07:15:07.079Z,4.77
2019-05-26T07:17:34.640Z,4.60
2019-05-26T07:20:02.970Z,4.80
2019-05-26T07:22:30.503Z,5.40
2019-05-26T07:24:58.069Z,4.47
2019-05-26T07:27:25.638Z,5.60
2019-05-26T07:29:53.200Z,4.20
2019-05-26T07:32:20.746Z,5.27
2019-05-26T07:34:48.307Z,5.03
2019-05-26T07:37:15.849Z,5.13
2019-05-26T07:39:43.404Z,4.70
2019-05-26T07:42:11.339Z,4.23
2019-05-26T07:44:38.539Z,5.83
2019-05-26T07:47:06.067Z,5.00
2019-05-26T07:49:33.600Z,4.80
2019-05-26T07:52:01.167Z,5.37
2019-05-26T07:54:28.703Z,5.00
2019-05-26T07:56:56.263Z,4.33
2019-05-26T07:59:23.823Z,7.67
2019-05-26T08:01:52.139Z,4.30
2019-05-26T08:04:19.696Z,3.90
2019-05-26T08:06:47.230Z,4.03
2019-05-26T08:09:15.780Z,3.93
2019-05-26T08:11:43.311Z,5.30
2019-05-26T08:14:10.870Z,5.33
2019-05-26T08:16:38.435Z,4.83
2019-05-26T08:19:05.995Z,5.47
2019-05-26T08:21:33.527Z,4.50
2019-05-26T08:24:01.092Z,5.10
2019-05-26T08:26:28.655Z,4.20
2019-05-26T08:28:56.211Z,4.00
2019-05-26T08:31:23.748Z,4.53
2019-05-26T08:33:51.307Z,4.60
2019-05-26T08:36:18.843Z,4.13
2019-05-26T08:38:46.404Z,4.20
2019-05-26T08:41:13.941Z,3.77
2019-05-26T08:43:42.270Z,4.70
2019-05-26T08:46:09.834Z,4.73
2019-05-26T08:48:37.395Z,4.23
2019-05-26T08:51:04.936Z,3.50
2019-05-26T08:53:32.497Z,5.27
2019-05-26T08:56:00.070Z,4.07
2019-05-26T08:58:29.406Z,4.03
2019-05-26T09:00:56.008Z,3.80
2019-05-26T09:03:23.567Z,4.53
2019-05-26T09:05:51.230Z,4.87
2019-05-26T09:08:18.788Z,4.00
2019-05-26T09:10:46.328Z,4.53
2019-05-26T09:13:14.846Z,3.70
2019-05-26T09:15:43.176Z,4.00
2019-05-26T09:18:10.732Z,3.70
2019-05-26T09:20:38.271Z,4.00
2019-05-26T09:23:05.827Z,3.23
2019-05-26T09:25:33.387Z,3.33
2019-05-26T09:28:00.959Z,3.27
2019-05-26T09:30:28.495Z,3.50
2019-05-26T09:32:56.054Z,3.47
2019-05-26T09:35:23.720Z,3.23
2019-05-26T09:37:51.279Z,2.67
2019-05-26T09:40:18.815Z,3.23
2019-05-26T09:42:46.376Z,3.30
2019-05-26T09:45:14.361Z,2.92
2019-05-26T09:47:41.899Z,2.87
2019-05-26T09:50:09.455Z,2.83
2019-05-26T09:52:38.040Z,2.43
2019-05-26T09:55:06.412Z,2.30
2019-05-26T09:57:33.962Z,2.50
2019-05-26T10:00:01.527Z,2.23
2019-05-26T10:02:29.096Z,2.10
2019-05-26T10:04:56.628Z,2.37
2019-05-26T10:07:24.187Z,2.60
2019-05-26T10:09:51.768Z,2.17
2019-05-26T10:12:19.333Z,2.20
2019-05-26T10:14:47.834Z,2.40
2019-05-26T10:17:14.487Z,3.23
2019-05-26T10:19:42.020Z,2.70
2019-05-26T10:22:09.593Z,2.53
2019-05-26T10:24:38.634Z,2.80
2019-05-26T10:27:06.193Z,2.50
2019-05-26T10:29:33.751Z,2.90
2019-05-26T10:32:01.291Z,2.50
2019-05-26T10:34:29.847Z,2.50
2019-05-26T10:36:57.407Z,3.10
2019-05-26T10:39:24.969Z,2.57
2019-05-26T10:41:53.396Z,2.92
2019-05-26T10:44:20.928Z,3.00
2019-05-26T10:46:48.491Z,2.90
2019-05-26T10:49:16.252Z,2.87
2019-05-26T10:51:43.816Z,6.30
2019-05-26T10:54:11.349Z,4.23
2019-05-26T10:56:38.915Z,2.40
2019-05-26T10:59:06.460Z,2.57
2019-05-26T11:01:34.800Z,2.40
2019-05-26T11:04:03.141Z,3.83
2019-05-26T11:06:30.705Z,2.40
2019-05-26T11:08:58.368Z,4.73
2019-05-26T11:11:25.901Z,2.00
2019-05-26T11:14:02.279Z,2.40
2019-05-26T11:16:21.072Z,2.20
2019-05-26T11:18:48.631Z,3.20
2019-05-26T11:21:16.172Z,18.53
2019-05-26T11:23:43.737Z,1.77
2019-05-26T11:26:12.323Z,2.40
2019-05-26T11:28:39.883Z,2.23
2019-05-26T11:31:07.427Z,2.93
2019-05-26T11:33:34.959Z,3.63
2019-05-26T11:36:02.520Z,2.10
2019-05-26T11:38:33.245Z,2.70
2019-05-26T11:40:58.359Z,2.17
2019-05-26T11:43:25.428Z,1.90
2019-05-26T11:45:52.963Z,2.20
2019-05-26T11:48:20.520Z,2.00
2019-05-26T11:50:48.065Z,2.77
2019-05-26T11:53:15.627Z,2.60
2019-05-26T11:55:43.165Z,3.63
2019-05-26T11:58:10.723Z,3.20
2019-05-26T12:00:38.252Z,2.17
2019-05-26T12:03:05.819Z,2.73
2019-05-26T12:05:34.115Z,2.20
2019-05-26T12:08:01.683Z,2.50
2019-05-26T12:10:29.222Z,2.23
2019-05-26T12:12:56.809Z,2.20
2019-05-26T12:15:24.373Z,2.30
2019-05-26T12:17:51.911Z,2.80
2019-05-26T12:20:19.468Z,2.40
2019-05-26T12:22:47.030Z,2.60
2019-05-26T12:25:14.559Z,2.40
2019-05-26T12:27:42.159Z,2.40
2019-05-26T12:30:09.719Z,2.63
2019-05-26T12:32:37.253Z,2.90
2019-05-26T12:35:05.574Z,2.60
2019-05-26T12:37:33.151Z,2.50
2019-05-26T12:40:00.697Z,2.67
2019-05-26T12:42:29.028Z,2.80
2019-05-26T12:44:56.564Z,2.60
2019-05-26T12:47:24.237Z,2.10
2019-05-26T12:49:51.773Z,2.47
2019-05-26T12:52:20.319Z,2.50
2019-05-26T12:54:47.886Z,2.40
2019-05-26T12:57:16.199Z,2.20
2019-05-26T12:59:43.762Z,3.00
2019-05-26T13:02:11.292Z,2.97
2019-05-26T13:04:39.900Z,2.80
2019-05-26T13:07:10.892Z,2.40
2019-05-26T13:09:46.837Z,2.10
2019-05-26T13:12:15.358Z,1.90
2019-05-26T13:14:42.920Z,2.10
2019-05-26T13:17:10.559Z,2.60
2019-05-26T13:19:38.123Z,2.30
2019-05-26T13:22:05.660Z,2.13
2019-05-26T13:24:33.966Z,2.53
2019-05-26T13:27:01.530Z,2.80
2019-05-26T13:29:29.066Z,2.50
2019-05-26T13:31:56.623Z,2.27
2019-05-26T13:34:24.304Z,1.97
2019-05-26T13:36:51.843Z,1.97
2019-05-26T13:39:19.403Z,2.10
2019-05-26T13:41:46.968Z,2.50
2019-05-26T13:44:14.503Z,2.37
2019-05-26T13:46:42.804Z,2.50
2019-05-26T13:49:10.370Z,2.30
2019-05-26T13:51:37.936Z,1.90
2019-05-26T13:54:05.467Z,2.20
2019-05-26T13:56:33.000Z,1.97
2019-05-26T13:59:01.334Z,1.90
2019-05-26T14:01:28.897Z,2.00
2019-05-26T14:03:56.435Z,1.90
2019-05-26T14:06:23.979Z,2.10
2019-05-26T14:08:52.507Z,1.80
2019-05-26T14:11:20.039Z,2.47
2019-05-26T14:13:47.592Z,1.97
2019-05-26T14:16:15.123Z,2.73
2019-05-26T14:18:42.688Z,2.20
2019-05-26T14:21:10.224Z,2.00
2019-05-26T14:23:37.785Z,2.30
2019-05-26T14:26:05.319Z,1.83
2019-05-26T14:28:32.879Z,2.03
2019-05-26T14:31:00.436Z,1.90
2019-05-26T14:33:28.764Z,1.70
2019-05-26T14:35:56.295Z,1.93
2019-05-26T14:38:23.868Z,1.70
2019-05-26T14:40:52.408Z,2.13
2019-05-26T14:43:20.737Z,1.90
2019-05-26T14:45:53.415Z,1.67
2019-05-26T14:48:15.875Z,1.63
2019-05-26T14:50:44.197Z,2.27
2019-05-26T14:53:11.762Z,1.63
2019-05-26T14:55:39.292Z,1.70
2019-05-26T14:58:15.625Z,2.20
2019-05-26T15:00:35.987Z,1.40
2019-05-26T15:03:03.548Z,4.00
2019-05-26T15:05:31.084Z,1.80
2019-05-26T15:07:58.651Z,1.90
2019-05-26T15:10:26.208Z,1.57
2019-05-26T15:12:53.780Z,1.63
2019-05-26T15:15:21.416Z,1.67
2019-05-26T15:17:48.979Z,1.97
2019-05-26T15:20:16.515Z,1.40
2019-05-26T15:22:44.071Z,1.67
2019-05-26T15:25:11.964Z,1.50
2019-05-26T15:27:39.529Z,1.77
2019-05-26T15:30:07.068Z,1.30
2019-05-26T15:32:34.635Z,1.63
2019-05-26T15:35:02.211Z,1.90
2019-05-26T15:37:29.743Z,1.50
2019-05-26T15:39:57.300Z,1.50
2019-05-26T15:42:24.851Z,1.57
2019-05-26T15:44:52.650Z,1.47
2019-05-26T15:47:20.187Z,1.40
2019-05-26T15:49:47.747Z,1.70
2019-05-26T15:52:15.283Z,1.50
2019-05-26T15:54:42.840Z,1.33
2019-05-26T15:57:10.374Z,1.70
2019-05-26T15:59:39.875Z,1.30
2019-05-26T16:02:07.408Z,1.47
2019-05-26T16:04:35.740Z,1.40
2019-05-26T16:07:03.276Z,1.27
2019-05-26T16:09:30.817Z,1.93
2019-05-26T16:11:58.379Z,1.87
2019-05-26T16:14:25.961Z,1.60
2019-05-26T16:16:53.498Z,1.60
2019-05-26T16:19:21.034Z,1.90
2019-05-26T16:21:49.368Z,1.60
2019-05-26T16:24:16.897Z,1.33
2019-05-26T16:26:44.461Z,1.90
2019-05-26T16:29:12.000Z,2.43
2019-05-26T16:31:39.559Z,1.67
2019-05-26T16:34:07.089Z,1.73
2019-05-26T16:36:34.648Z,1.37
2019-05-26T16:39:02.183Z,2.43
2019-05-26T16:41:29.750Z,1.50
2019-05-26T16:43:57.284Z,1.73
2019-05-26T16:46:24.846Z,2.20
2019-05-26T16:48:54.760Z,1.63
2019-05-26T16:51:19.991Z,1.40
2019-05-26T16:53:47.523Z,1.67
2019-05-26T16:56:15.080Z,1.70
2019-05-26T16:58:42.647Z,2.03
2019-05-26T17:01:10.180Z,2.10
2019-05-26T17:03:37.735Z,3.93
2019-05-26T17:06:08.076Z,2.50
2019-05-26T17:08:32.905Z,3.80
2019-05-26T17:11:00.440Z,2.20
2019-05-26T17:13:28.000Z,2.30
2019-05-26T17:15:55.568Z,4.10
2019-05-26T17:18:23.898Z,6.40
2019-05-26T17:20:51.428Z,4.50
2019-05-26T17:23:19.029Z,2.13
2019-05-26T17:25:46.579Z,2.60
2019-05-26T17:28:14.136Z,3.57
2019-05-26T17:30:41.870Z,3.33
2019-05-26T17:33:09.438Z,2.67
2019-05-26T17:35:36.999Z,2.87
2019-05-26T17:38:04.832Z,3.07
2019-05-26T17:40:32.476Z,2.83
2019-05-26T17:43:00.011Z,2.23
2019-05-26T17:45:28.528Z,4.47
2019-05-26T17:47:56.059Z,4.57
2019-05-26T17:50:23.622Z,3.27
2019-05-26T17:52:51.930Z,2.43
2019-05-26T17:55:19.496Z,2.30
2019-05-26T17:57:47.027Z,2.40
2019-05-26T18:00:14.590Z,2.27
2019-05-26T18:02:42.126Z,2.43
2019-05-26T18:05:10.447Z,1.93
2019-05-26T18:07:38.006Z,2.30
2019-05-26T18:10:06.346Z,2.40
2019-05-26T18:12:33.907Z,2.43
2019-05-26T18:15:01.476Z,2.90
2019-05-26T18:17:44.059Z,2.30
2019-05-26T18:19:56.610Z,2.63
2019-05-26T18:22:24.157Z,1.83
2019-05-26T18:24:57.445Z,1.77
2019-05-26T18:27:19.316Z,2.30
2019-05-26T18:32:20.808Z,3.60
2019-05-26T18:34:48.396Z,2.20
2019-05-26T18:37:15.932Z,2.80
2019-05-26T18:39:43.496Z,2.60
2019-05-26T18:42:11.702Z,2.10
2019-05-26T18:44:40.282Z,2.27
2019-05-26T18:47:07.815Z,3.80
2019-05-26T18:49:35.373Z,3.10
2019-05-26T18:52:02.911Z,2.10
2019-05-26T18:54:30.477Z,2.30
2019-05-26T18:56:58.015Z,3.23
2019-05-26T18:59:25.581Z,2.53
2019-05-26T19:01:53.230Z,2.77
2019-05-26T19:04:20.765Z,2.23
2019-05-26T19:06:48.331Z,2.90
2019-05-26T19:09:15.867Z,2.40
2019-05-26T19:11:43.486Z,2.40
2019-05-26T19:14:11.028Z,2.87
2019-05-26T19:16:38.600Z,2.70
2019-05-26T19:19:06.147Z,3.03
2019-05-26T19:21:33.748Z,2.50
2019-05-26T19:24:01.284Z,3.63
2019-05-26T19:26:28.848Z,2.57
2019-05-26T19:28:57.410Z,2.63
2019-05-26T19:31:24.955Z,2.60
2019-05-26T19:33:53.551Z,2.83
2019-05-26T19:36:21.089Z,2.77
2019-05-26T19:38:48.772Z,2.40
2019-05-26T19:41:16.319Z,2.70
2019-05-26T19:43:43.963Z,4.00
2019-05-26T19:46:11.499Z,2.87
2019-05-26T19:48:39.082Z,2.60
2019-05-26T19:51:06.616Z,4.00
2019-05-26T19:53:34.180Z,2.37
2019-05-26T19:56:02.479Z,2.63
2019-05-26T19:58:30.228Z,2.40
2019-05-26T20:00:58.550Z,2.50
2019-05-26T20:03:27.244Z,3.03
2019-05-26T20:05:54.778Z,3.50
2019-05-26T20:08:22.339Z,2.67
2019-05-26T20:10:49.885Z,2.47
2019-05-26T20:13:17.440Z,2.83
2019-05-26T20:15:44.976Z,2.43
2019-05-26T20:18:13.543Z,2.90
2019-05-26T20:20:41.078Z,2.37
2019-05-26T20:23:09.651Z,2.30
2019-05-26T20:25:37.268Z,3.20
2019-05-26T20:28:06.161Z,2.93
2019-05-26T20:30:33.983Z,3.47
2019-05-26T20:33:02.279Z,2.90
2019-05-26T20:35:29.847Z,3.10
2019-05-26T20:37:57.408Z,2.63
2019-05-26T20:40:24.976Z,2.90
2019-05-26T20:42:52.514Z,2.60
2019-05-26T20:45:20.082Z,2.50
2019-05-26T20:47:47.611Z,2.30
2019-05-26T20:50:28.795Z,2.63
2019-05-26T20:52:44.753Z,2.70
2019-05-26T20:55:13.097Z,2.90
2019-05-26T20:57:40.628Z,3.07
2019-05-26T21:00:08.615Z,2.67
2019-05-26T21:02:35.854Z,2.67
2019-05-26T21:05:03.427Z,2.83
2019-05-26T21:07:30.982Z,2.33
2019-05-26T21:09:58.828Z,2.47
2019-05-26T21:12:26.424Z,3.00
2019-05-26T21:14:54.004Z,2.90
2019-05-26T21:17:22.311Z,2.63
2019-05-26T21:19:49.878Z,2.60
2019-05-26T21:22:17.409Z,2.90
2019-05-26T21:24:44.945Z,2.70
2019-05-26T21:27:12.507Z,2.80
2019-05-26T21:29:40.804Z,2.77
2019-05-26T21:32:08.363Z,2.70
2019-05-26T21:34:35.901Z,3.00
2019-05-26T21:37:04.444Z,3.03
2019-05-26T21:39:31.981Z,3.30
2019-05-26T21:41:59.539Z,2.80
2019-05-26T21:44:27.073Z,3.57
2019-05-26T21:46:56.551Z,3.37
2019-05-26T21:49:24.109Z,3.30
2019-05-26T21:51:51.643Z,4.00
2019-05-26T21:54:19.200Z,3.53
2019-05-26T21:56:46.764Z,3.37
2019-05-26T21:59:14.306Z,3.70
2019-05-26T22:01:41.865Z,3.40
2019-05-26T22:04:09.397Z,3.20
2019-05-26T22:06:36.964Z,3.10
2019-05-26T22:09:04.510Z,2.93
2019-05-26T22:11:32.159Z,3.07
2019-05-26T22:13:59.696Z,2.83
2019-05-26T22:16:27.265Z,2.87
2019-05-26T22:18:54.805Z,3.07
2019-05-26T22:21:22.376Z,3.10
2019-05-26T22:23:49.931Z,3.10
2019-05-26T22:26:18.504Z,2.93
2019-05-26T22:28:46.175Z,3.10
2019-05-26T22:31:13.707Z,3.10
2019-05-26T22:33:41.280Z,3.30
2019-05-26T22:36:08.844Z,3.03
2019-05-26T22:38:36.412Z,2.80
2019-05-26T22:41:03.972Z,3.83
2019-05-26T22:43:31.552Z,3.20
2019-05-26T22:45:59.160Z,3.07
2019-05-26T22:48:26.695Z,2.77
2019-05-26T22:50:54.314Z,3.20
2019-05-26T22:53:22.878Z,3.10
2019-05-26T22:55:50.420Z,2.60
2019-05-26T22:58:17.978Z,2.73
2019-05-26T23:00:45.511Z,3.50
2019-05-26T23:03:13.067Z,2.97
2019-05-26T23:05:41.371Z,2.80
2019-05-26T23:08:08.937Z,3.20
2019-05-26T23:10:36.587Z,2.90
2019-05-26T23:13:05.110Z,3.23
2019-05-26T23:15:32.655Z,2.90
2019-05-26T23:18:00.218Z,2.70
2019-05-26T23:20:27.752Z,3.00
2019-05-26T23:22:55.308Z,3.47
2019-05-26T23:25:23.157Z,2.90
2019-05-26T23:27:50.735Z,3.40
2019-05-26T23:30:18.295Z,3.03
2019-05-26T23:32:45.846Z,3.10
2019-05-26T23:35:13.395Z,3.07
2019-05-26T23:37:40.963Z,3.43
2019-05-26T23:40:08.497Z,3.20
2019-05-26T23:42:36.051Z,3.20
2019-05-26T23:45:05.397Z,3.10
2019-05-26T23:47:32.959Z,3.30
2019-05-26T23:50:00.483Z,3.13
2019-05-26T23:52:28.039Z,3.20
2019-05-26T23:54:55.573Z,3.93
2019-05-26T23:57:23.143Z,3.83
2019-05-26T23:59:51.683Z,3.83
